Time;durP1;ratioP1;P1;durP2;ratioP2;P2;SDS_P1;SDS_P2;PMS_P1;PMS_P2;Temp;Humidity;BMP_temperature;BMP_pressure;BME280_temperature;BME280_humidity;BME280_pressure;Samples;Min_cycle;Max_cycle;Signal;HPM_P1;HPM_P2
2022/09/21 00:00:17;;;;;;;21.55;11.90;;;;;;;14.98;44.18;99742.00;3142764;28;20060;-60
2022/09/21 00:01:49;;;;;;;23.83;13.90;;;;;;;14.96;44.33;99736.00;3141423;28;20060;-60
2022/09/21 00:03:20;;;;;;;23.33;13.13;;;;;;;14.94;44.45;99740.53;3143325;28;20102;-60
2022/09/21 00:04:52;;;;;;;21.40;12.82;;;;;;;14.95;44.42;99741.38;3144642;28;20064;-60
2022/09/21 00:06:26;;;;;;;20.88;11.73;;;;;;;14.90;44.23;99725.09;3144038;28;20045;-60
2022/09/21 00:08:00;;;;;;;18.25;10.27;;;;;;;14.95;44.21;99733.50;3143330;28;20433;-60
2022/09/21 00:09:31;;;;;;;22.02;11.10;;;;;;;14.96;44.22;99738.63;3144296;28;20071;-60
2022/09/21 00:11:05;;;;;;;17.60;9.93;;;;;;;14.97;44.41;99734.25;3144174;28;20055;-60
2022/09/21 00:12:37;;;;;;;16.13;8.93;;;;;;;14.96;44.31;99737.81;3144447;28;20059;-60
2022/09/21 00:14:13;;;;;;;11.85;7.72;;;;;;;14.98;44.20;99741.16;3144548;28;20726;-60
2022/09/21 00:15:44;;;;;;;14.52;7.57;;;;;;;15.00;44.30;99744.53;3144148;28;20509;-61
2022/09/21 00:17:16;;;;;;;9.10;6.07;;;;;;;15.00;44.40;99742.75;3144627;28;20048;-61
2022/09/21 00:18:48;;;;;;;7.75;5.10;;;;;;;15.00;44.63;99740.13;3144635;28;20061;-61
2022/09/21 00:20:20;;;;;;;6.47;3.45;;;;;;;15.02;44.65;99740.03;3144207;28;20173;-61
2022/09/21 00:21:54;;;;;;;8.15;3.30;;;;;;;15.06;44.22;99738.91;3144399;28;20127;-59
2022/09/21 00:23:26;;;;;;;4.30;2.58;;;;;;;15.07;44.41;99745.81;3140496;28;20121;-59
2022/09/21 00:24:57;;;;;;;5.47;1.90;;;;;;;15.07;44.21;99743.19;3144195;28;20057;-59
2022/09/21 00:26:29;;;;;;;3.42;1.90;;;;;;;14.92;44.43;99721.44;3144219;28;20650;-59
2022/09/21 00:28:02;;;;;;;2.67;1.48;;;;;;;15.02;44.69;99748.75;3144498;28;20044;-60
2022/09/21 00:29:35;;;;;;;3.40;1.42;;;;;;;14.99;44.46;99746.31;3148005;28;20532;-59
2022/09/21 00:31:09;;;;;;;2.67;1.38;;;;;;;15.01;44.80;99751.47;3144058;28;20128;-59
2022/09/21 00:32:41;;;;;;;3.42;1.08;;;;;;;15.01;44.51;99746.22;3144332;28;20048;-59
2022/09/21 00:34:13;;;;;;;2.03;1.33;;;;;;;15.01;44.69;99744.44;3144202;28;20068;-59
2022/09/21 00:35:45;;;;;;;1.38;1.20;;;;;;;15.00;44.81;99745.38;3144417;28;20430;-59
2022/09/21 00:37:17;;;;;;;4.70;1.67;;;;;;;14.98;44.80;99742.00;3142000;28;20052;-58
2022/09/21 00:38:51;;;;;;;3.75;1.38;;;;;;;14.97;44.59;99748.19;3144327;28;20123;-59
2022/09/21 00:40:23;;;;;;;1.65;1.08;;;;;;;14.97;44.34;99752.63;3139337;28;20048;-60
2022/09/21 00:41:55;;;;;;;1.42;0.98;;;;;;;14.98;44.34;99752.50;3135272;28;20052;-59
2022/09/21 00:43:26;;;;;;;3.10;1.00;;;;;;;14.89;44.35;99734.72;3135586;28;20211;-59
2022/09/21 00:45:00;;;;;;;1.42;0.90;;;;;;;14.98;44.50;99739.38;3135346;28;20687;-59
2022/09/21 00:46:31;;;;;;;1.98;0.82;;;;;;;15.01;44.42;99738.34;3135120;28;20052;-59
2022/09/21 00:48:03;;;;;;;5.70;1.23;;;;;;;15.02;44.38;99748.75;3134245;28;20061;-59
2022/09/21 00:49:36;;;;;;;2.50;1.30;;;;;;;15.03;44.35;99741.72;3132398;28;20151;-59
2022/09/21 00:51:09;;;;;;;1.45;1.15;;;;;;;15.03;44.01;99744.34;3134429;28;20545;-59
2022/09/21 00:52:44;;;;;;;2.43;1.17;;;;;;;15.05;43.89;99741.63;3135642;28;20462;-59
2022/09/21 00:54:20;;;;;;;1.85;1.20;;;;;;;15.07;44.11;99735.34;3135040;28;20053;-59
2022/09/21 00:55:56;;;;;;;1.45;0.98;;;;;;;15.10;43.77;99737.75;3135430;28;20052;-59
2022/09/21 00:57:31;;;;;;;3.33;1.10;;;;;;;15.11;43.89;99749.91;3135267;28;20105;-59
2022/09/21 00:59:04;;;;;;;3.42;1.20;;;;;;;15.11;43.65;99744.66;3135314;28;20044;-60
2022/09/21 01:00:39;;;;;;;3.65;1.13;;;;;;;15.13;43.73;99742.78;3133812;28;20056;-60
2022/09/21 01:02:11;;;;;;;1.48;0.90;;;;;;;15.12;43.54;99742.91;3134696;28;20138;-60
2022/09/21 01:03:44;;;;;;;1.02;0.70;;;;;;;15.11;43.49;99746.47;3134443;28;20062;-60
2022/09/21 01:05:16;;;;;;;;;;;;;;;15.06;43.85;99740.69;3136182;28;20071;-59
2022/09/21 01:06:49;;;;;;;2.97;0.82;;;;;;;15.09;43.86;99746.56;3136792;28;19985;-60
2022/09/21 01:08:22;;;;;;;1.65;1.10;;;;;;;15.08;43.66;99738.78;3136319;28;20060;-60
2022/09/21 01:09:57;;;;;;;2.92;1.75;;;;;;;15.05;43.86;99739.81;3137680;28;20084;-59
2022/09/21 01:11:39;;;;;;;2.42;1.05;;;;;;;15.05;44.12;99739.00;3136716;28;20556;-60
2022/09/21 01:13:25;;;;;;;2.88;1.00;;;;;;;15.06;43.80;99738.06;3136188;28;20599;-60
2022/09/21 01:15:11;;;;;;;1.65;0.90;;;;;;;15.04;43.94;99730.28;3137470;28;20056;-59
2022/09/21 01:16:53;;;;;;;1.25;0.85;;;;;;;15.05;43.79;99728.50;3137098;28;20060;-60
2022/09/21 01:18:31;;;;;;;2.40;1.58;;;;;;;15.05;43.75;99729.34;3137169;28;20048;-60
2022/09/21 01:20:35;;;;;;;1.90;0.90;;;;;;;15.07;43.82;99732.72;3136494;28;20594;-60
2022/09/21 01:22:14;;;;;;;2.88;1.00;;;;;;;15.00;43.69;99726.19;3128910;28;20163;-60
2022/09/21 01:24:20;;;;;;;4.30;1.27;;;;;;;15.10;43.87;99731.66;3136093;28;20102;-60
2022/09/21 01:26:05;;;;;;;1.92;0.90;;;;;;;15.04;43.71;99711.94;3136192;28;20053;-60
2022/09/21 01:27:56;;;;;;;2.25;1.15;;;;;;;15.10;43.90;99722.00;3136133;28;20541;-60
2022/09/21 01:29:34;;;;;;;5.43;1.17;;;;;;;15.12;44.17;99724.56;3137554;28;20135;-60
2022/09/21 01:31:12;;;;;;;1.92;1.00;;;;;;;15.15;44.07;99721.72;3136020;28;20114;-59
2022/09/21 01:32:52;;;;;;;2.72;0.95;;;;;;;15.15;43.81;99713.88;3136688;28;20048;-59
2022/09/21 01:34:30;;;;;;;1.50;1.02;;;;;;;15.16;43.90;99713.75;3136313;28;20450;-60
2022/09/21 01:36:07;;;;;;;2.17;0.93;;;;;;;15.16;43.88;99711.13;3136294;28;20301;-61
2022/09/21 01:37:44;;;;;;;2.78;1.10;;;;;;;15.17;43.79;99709.34;3136241;28;20063;-59
2022/09/21 01:39:19;;;;;;;3.95;0.98;;;;;;;15.14;44.14;99705.13;3134235;28;20056;-59
2022/09/21 01:40:56;;;;;;;1.58;1.00;;;;;;;15.09;43.90;99704.59;3135893;28;20580;-59
2022/09/21 01:42:31;;;;;;;2.45;1.30;;;;;;;15.10;44.13;99705.44;3136846;28;20048;-59
2022/09/21 01:44:07;;;;;;;2.97;1.38;;;;;;;15.09;44.24;99702.00;3137469;28;20060;-59
2022/09/21 01:45:50;;;;;;;2.22;0.98;;;;;;;15.07;44.26;99709.09;3137222;28;20068;-60
2022/09/21 01:47:24;;;;;;;3.23;0.87;;;;;;;15.01;44.29;99705.09;3137165;28;20520;-59
2022/09/21 01:49:03;;;;;;;1.25;0.90;;;;;;;15.04;44.32;99696.19;3136074;28;20364;-62
2022/09/21 01:50:38;;;;;;;3.20;1.10;;;;;;;15.01;44.49;99705.09;3136439;28;20052;-59
2022/09/21 01:52:14;;;;;;;1.08;0.98;;;;;;;14.99;44.36;99708.75;3136578;28;20068;-60
2022/09/21 01:53:52;;;;;;;1.88;1.15;;;;;;;14.98;44.60;99702.69;3135513;28;20239;-59
2022/09/21 01:55:28;;;;;;;2.22;0.77;;;;;;;14.96;44.54;99707.16;3136795;28;20048;-59
2022/09/21 01:57:06;;;;;;;3.08;0.77;;;;;;;14.94;44.58;99703.81;3137011;28;20063;-59
2022/09/21 01:58:43;;;;;;;2.60;1.00;;;;;;;14.94;44.45;99708.22;3135442;28;20125;-59
2022/09/21 02:00:16;;;;;;;3.70;0.93;;;;;;;14.90;44.68;99706.72;3130809;28;20552;-60
2022/09/21 02:01:56;;;;;;;3.58;0.98;;;;;;;14.82;44.52;99699.38;3134955;28;20052;-60
2022/09/21 02:03:33;;;;;;;2.30;1.45;;;;;;;14.87;44.79;99704.31;3135037;28;20484;-60
2022/09/21 02:05:06;;;;;;;2.45;1.25;;;;;;;14.88;44.64;99705.97;3135560;28;20059;-60
2022/09/21 02:06:41;;;;;;;2.28;0.70;;;;;;;14.87;44.55;99706.94;3135768;28;20045;-60
2022/09/21 02:08:13;;;;;;;1.90;1.08;;;;;;;14.88;44.86;99698.13;3135313;28;20556;-60
2022/09/21 02:09:47;;;;;;;1.92;1.10;;;;;;;14.90;44.41;99701.50;3136659;28;20061;-60
2022/09/21 02:11:19;;;;;;;2.13;0.70;;;;;;;14.91;44.33;99698.78;3136298;28;20525;-60
2022/09/21 02:13:00;;;;;;;1.20;0.80;;;;;;;14.93;44.50;99706.53;3136223;28;20052;-60
2022/09/21 02:14:33;;;;;;;1.65;1.05;;;;;;;14.90;44.66;99706.72;3135006;28;20052;-60
2022/09/21 02:16:25;;;;;;;1.63;0.90;;;;;;;14.93;44.50;99706.53;3136154;28;20445;-59
2022/09/21 02:18:05;;;;;;;2.28;0.68;;;;;;;14.94;44.57;99705.59;3135462;28;20113;-60
2022/09/21 02:19:46;;;;;;;2.08;1.00;;;;;;;14.94;44.82;99703.81;3129027;28;20586;-60
2022/09/21 02:21:25;;;;;;;2.03;1.45;;;;;;;14.83;44.43;99687.94;3130044;28;20456;-59
2022/09/21 02:23:06;;;;;;;2.33;1.08;;;;;;;14.96;44.81;99707.16;3129885;28;20130;-59
2022/09/21 02:24:41;;;;;;;0.80;0.70;;;;;;;14.96;44.52;99706.34;3131540;28;20048;-60
2022/09/21 02:26:20;;;;;;;3.78;1.00;;;;;;;14.98;44.70;99714.94;3135563;28;20209;-60
2022/09/21 02:27:57;;;;;;;1.55;0.90;;;;;;;14.98;44.44;99710.53;3130089;28;20044;-60
2022/09/21 02:29:34;;;;;;;2.13;0.80;;;;;;;14.99;44.72;99714.00;3130577;28;20055;-60
2022/09/21 02:31:13;;;;;;;4.43;1.20;;;;;;;14.96;44.71;99706.34;3129836;28;20064;-60
2022/09/21 02:32:52;;;;;;;4.40;0.80;;;;;;;14.99;44.81;99709.59;3129025;28;20866;-60
2022/09/21 02:34:33;;;;;;;7.25;1.38;;;;;;;15.02;44.51;99712.03;3128400;28;20048;-60
2022/09/21 02:36:11;;;;;;;1.83;1.02;;;;;;;14.89;44.51;99689.31;3128847;28;20074;-60
2022/09/21 02:37:55;;;;;;;2.72;1.00;;;;;;;15.01;44.65;99718.22;3134204;28;20563;-59
2022/09/21 02:39:34;;;;;;;2.15;1.00;;;;;;;15.02;44.82;99716.41;3135074;28;20110;-60
2022/09/21 02:41:15;;;;;;;2.58;1.10;;;;;;;15.02;44.74;99717.28;3135597;28;20517;-59
2022/09/21 02:42:52;;;;;;;3.03;0.82;;;;;;;15.01;44.57;99710.34;3135905;28;20048;-60
2022/09/21 02:44:32;;;;;;;1.08;0.80;;;;;;;15.05;44.76;99715.38;3135012;28;20059;-60
2022/09/21 02:46:18;;;;;;;1.65;1.25;;;;;;;15.01;45.02;99714.75;3131138;28;20094;-60
2022/09/21 02:47:57;;;;;;;2.08;0.90;;;;;;;15.02;44.81;99711.19;3144560;28;20070;-60
2022/09/21 02:49:36;;;;;;;3.80;1.20;;;;;;;15.03;44.68;99718.13;3145099;28;20083;-59
2022/09/21 02:51:12;;;;;;;5.05;1.25;;;;;;;14.99;44.85;99712.22;3144639;28;20117;-60
2022/09/21 02:52:44;;;;;;;1.80;1.02;;;;;;;15.00;44.92;99719.16;3144819;28;20052;-60
2022/09/21 02:54:20;;;;;;;2.30;1.27;;;;;;;15.00;44.61;99718.31;3144894;28;20049;-60
2022/09/21 02:55:53;;;;;;;2.72;1.13;;;;;;;14.99;44.94;99711.38;3145275;28;20060;-60
2022/09/21 02:57:26;;;;;;;1.70;0.70;;;;;;;15.00;44.78;99721.78;3144957;28;20052;-61
2022/09/21 02:59:03;;;;;;;1.17;0.90;;;;;;;15.00;44.56;99718.31;3145014;28;20044;-60
2022/09/21 03:00:36;;;;;;;3.55;1.10;;;;;;;14.99;44.63;99727.94;3138949;28;20044;-59
2022/09/21 03:02:08;;;;;;;1.52;1.10;;;;;;;14.99;44.58;99716.63;3144952;28;20052;-60
2022/09/21 03:03:41;;;;;;;4.45;1.00;;;;;;;14.89;44.91;99715.53;3145071;28;20052;-61
2022/09/21 03:05:15;;;;;;;5.03;1.20;;;;;;;14.88;44.97;99713.84;3143709;28;20052;-61
2022/09/21 03:06:46;;;;;;;1.50;0.85;;;;;;;14.88;44.72;99714.72;3144206;28;20880;-58
2022/09/21 03:08:18;;;;;;;1.80;1.33;;;;;;;14.84;45.13;99710.59;3144983;28;20056;-60
2022/09/21 03:09:50;;;;;;;1.90;1.10;;;;;;;14.81;45.23;99716.03;3144709;28;20055;-61
2022/09/21 03:11:22;;;;;;;5.00;1.05;;;;;;;14.67;45.02;99701.19;3144972;28;20053;-60
2022/09/21 03:12:58;;;;;;;3.42;1.25;;;;;;;14.80;45.07;99722.22;3144895;28;20105;-61
2022/09/21 03:14:30;;;;;;;1.83;1.33;;;;;;;14.81;45.17;99717.81;3139264;28;20087;-60
2022/09/21 03:16:04;;;;;;;2.63;0.98;;;;;;;14.79;45.17;99716.13;3144750;28;20541;-61
2022/09/21 03:17:36;;;;;;;1.65;1.13;;;;;;;14.83;44.97;99726.44;3145005;28;20044;-60
2022/09/21 03:19:08;;;;;;;3.53;1.20;;;;;;;14.80;44.98;99727.47;3144632;28;20048;-60
2022/09/21 03:20:45;;;;;;;1.75;1.10;;;;;;;14.65;45.14;99703.06;3144974;28;20434;-60
2022/09/21 03:22:17;;;;;;;2.85;1.27;;;;;;;14.74;45.25;99717.38;3144700;28;20084;-59
2022/09/21 03:23:49;;;;;;;2.05;1.00;;;;;;;14.71;45.02;99722.81;3144664;28;20045;-59
2022/09/21 03:25:20;;;;;;;4.32;1.17;;;;;;;14.71;45.13;99726.25;3144285;28;20049;-60
2022/09/21 03:26:52;;;;;;;1.98;1.00;;;;;;;14.73;45.02;99723.53;3144743;28;20048;-60
2022/09/21 03:28:23;;;;;;;1.52;1.10;;;;;;;14.73;45.46;99731.41;3144575;28;20110;-60
2022/09/21 03:29:55;;;;;;;5.38;1.10;;;;;;;14.76;45.08;99723.38;3148442;28;20059;-60
2022/09/21 03:31:27;;;;;;;2.33;1.20;;;;;;;14.76;44.96;99732.06;3144861;28;20040;-60
2022/09/21 03:32:59;;;;;;;2.28;1.17;;;;;;;14.78;45.33;99729.31;3144505;28;20704;-60
2022/09/21 03:34:33;;;;;;;3.35;1.10;;;;;;;14.77;45.42;99727.66;3144248;28;20060;-60
2022/09/21 03:36:06;;;;;;;1.20;0.88;;;;;;;14.79;45.18;99731.03;3144685;28;20053;-60
2022/09/21 03:37:38;;;;;;;2.45;1.13;;;;;;;14.82;45.37;99730.84;3144824;28;20052;-59
2022/09/21 03:39:10;;;;;;;3.22;1.10;;;;;;;14.81;45.42;99733.53;3144530;28;20059;-60
2022/09/21 03:40:45;;;;;;;3.30;1.20;;;;;;;14.84;45.31;99731.56;3144943;28;20052;-59
2022/09/21 03:42:16;;;;;;;3.10;1.00;;;;;;;14.80;45.33;99730.09;3144372;28;20053;-59
2022/09/21 03:43:48;;;;;;;2.55;1.60;;;;;;;14.79;45.36;99734.50;3144772;28;20082;-60
2022/09/21 03:45:21;;;;;;;2.97;1.30;;;;;;;14.77;45.50;99738.97;3144406;28;20056;-59
2022/09/21 03:46:52;;;;;;;3.15;1.20;;;;;;;14.70;45.39;99723.72;3144609;28;20135;-59
2022/09/21 03:48:24;;;;;;;3.95;1.00;;;;;;;14.75;45.56;99732.97;3144333;28;20049;-60
2022/09/21 03:49:56;;;;;;;4.05;1.20;;;;;;;14.77;45.70;99738.16;3144769;28;20048;-59
2022/09/21 03:51:30;;;;;;;2.80;1.40;;;;;;;14.78;45.41;99732.78;3144300;28;20056;-59
2022/09/21 03:53:02;;;;;;;1.98;1.30;;;;;;;14.78;45.76;99739.81;3144427;28;20113;-60
2022/09/21 03:54:33;;;;;;;2.15;1.50;;;;;;;14.78;45.79;99734.56;3144632;28;20041;-59
2022/09/21 03:56:05;;;;;;;2.97;1.48;;;;;;;14.74;45.96;99728.69;3144602;28;20048;-60
2022/09/21 03:57:38;;;;;;;4.35;1.20;;;;;;;14.71;46.09;99734.13;3144398;28;20056;-60
2022/09/21 03:59:09;;;;;;;2.20;1.23;;;;;;;14.68;45.84;99738.72;3144415;28;20052;-60
2022/09/21 04:00:41;;;;;;;2.22;1.10;;;;;;;14.69;46.18;99737.78;3144421;28;20125;-60
2022/09/21 04:02:12;;;;;;;5.03;1.20;;;;;;;14.69;45.97;99735.16;3144248;28;20068;-60
2022/09/21 04:03:44;;;;;;;1.70;1.23;;;;;;;14.69;46.31;99740.41;3144831;28;20084;-60
2022/09/21 04:05:17;;;;;;;4.28;1.20;;;;;;;14.68;46.35;99741.34;3144458;28;20080;-60
2022/09/21 04:06:50;;;;;;;2.47;1.30;;;;;;;14.66;46.10;99740.59;3144059;28;20048;-59
2022/09/21 04:08:22;;;;;;;1.60;1.13;;;;;;;14.64;46.03;99734.59;3144327;28;20102;-60
2022/09/21 04:09:53;;;;;;;3.17;1.40;;;;;;;14.62;46.50;99739.97;3144517;28;20053;-60
2022/09/21 04:11:25;;;;;;;2.97;0.98;;;;;;;14.61;46.20;99735.66;3144265;28;20086;-60
2022/09/21 04:12:57;;;;;;;2.75;1.20;;;;;;;14.61;46.35;99740.91;3144712;28;20382;-60
2022/09/21 04:14:29;;;;;;;3.27;1.67;;;;;;;14.61;46.18;99737.41;3144482;28;20044;-59
2022/09/21 04:16:02;;;;;;;3.67;1.38;;;;;;;14.63;46.20;99743.41;3144136;28;20310;-60
2022/09/21 04:17:34;;;;;;;2.03;1.23;;;;;;;14.63;46.27;99746.03;3145051;28;20449;-60
2022/09/21 04:19:05;;;;;;;2.63;1.55;;;;;;;14.65;46.52;99741.53;3144644;28;20506;-60
2022/09/21 04:20:37;;;;;;;5.93;1.60;;;;;;;14.66;46.07;99746.66;3144536;28;20056;-60
2022/09/21 04:22:12;;;;;;;3.80;1.33;;;;;;;14.68;46.22;99743.97;3144577;28;20106;-59
2022/09/21 04:23:43;;;;;;;3.63;1.55;;;;;;;14.69;46.38;99756.97;3144706;28;20131;-60
2022/09/21 04:25:15;;;;;;;3.60;1.45;;;;;;;14.70;46.29;99742.94;3144111;28;20056;-60
2022/09/21 04:26:47;;;;;;;5.03;1.77;;;;;;;14.63;46.37;99736.38;3144467;28;20053;-60
2022/09/21 04:28:18;;;;;;;4.50;1.48;;;;;;;14.71;46.40;99739.38;3144226;28;20053;-59
2022/09/21 04:29:50;;;;;;;3.92;1.38;;;;;;;14.73;46.50;99744.50;3146694;28;20052;-60
2022/09/21 04:31:24;;;;;;;8.80;1.83;;;;;;;14.76;46.35;99744.34;3144392;28;20049;-60
2022/09/21 04:32:55;;;;;;;;;;;;;;;14.75;46.06;99745.25;3145073;28;20049;-60
2022/09/21 04:34:27;;;;;;;7.30;1.40;;;;;;;14.75;46.28;99746.09;3144055;28;19924;-59
2022/09/21 04:35:59;;;;;;;4.03;1.52;;;;;;;14.76;46.33;99747.78;3144464;28;20044;-59
2022/09/21 04:37:32;;;;;;;3.50;1.35;;;;;;;14.75;46.39;99746.09;3141325;28;20143;-59
2022/09/21 04:39:05;;;;;;;5.90;1.20;;;;;;;14.78;46.04;99752.91;3143250;28;20048;-60
2022/09/21 04:40:37;;;;;;;6.13;1.10;;;;;;;14.80;45.99;99758.91;3144539;28;20574;-59
2022/09/21 04:42:10;;;;;;;5.30;1.20;;;;;;;14.81;45.84;99751.91;3145632;28;20843;-60
2022/09/21 04:43:42;;;;;;;9.95;2.20;;;;;;;14.81;46.13;99750.09;3145987;28;20080;-60
2022/09/21 04:45:14;;;;;;;3.63;1.27;;;;;;;14.84;45.84;99752.53;3145637;28;20140;-60
2022/09/21 04:46:45;;;;;;;2.63;1.20;;;;;;;14.86;46.18;99758.53;3145834;28;20121;-60
2022/09/21 04:48:17;;;;;;;9.13;1.40;;;;;;;14.87;45.75;99754.13;3139198;28;20055;-60
2022/09/21 04:49:49;;;;;;;3.28;1.38;;;;;;;14.88;45.91;99750.56;3145614;28;20143;-60
2022/09/21 04:51:21;;;;;;;10.10;1.60;;;;;;;14.87;46.16;99754.97;3145656;28;20552;-59
2022/09/21 04:52:54;;;;;;;6.90;1.30;;;;;;;14.90;46.05;99752.13;3145534;28;20094;-58
2022/09/21 04:54:26;;;;;;;8.50;1.70;;;;;;;14.89;45.95;99749.63;3145110;28;20052;-59
2022/09/21 04:55:57;;;;;;;3.70;1.30;;;;;;;14.88;45.92;99750.56;3145365;28;20510;-59
2022/09/21 04:57:29;;;;;;;7.13;1.52;;;;;;;14.89;46.21;99747.84;3145462;28;20060;-59
2022/09/21 04:59:01;;;;;;;4.55;1.33;;;;;;;14.87;46.01;99751.50;3145435;28;20061;-60
2022/09/21 05:00:32;;;;;;;6.90;1.27;;;;;;;14.90;46.25;99756.53;3145726;28;20052;-60
2022/09/21 05:02:04;;;;;;;6.00;1.60;;;;;;;14.91;46.23;99758.25;3145139;28;20063;-60
2022/09/21 05:03:36;;;;;;;5.88;1.30;;;;;;;14.93;46.04;99751.09;3146780;28;20105;-60
2022/09/21 05:05:08;;;;;;;5.07;1.30;;;;;;;14.95;46.01;99749.25;3139097;28;20045;-61
2022/09/21 05:06:40;;;;;;;3.35;1.42;;;;;;;14.95;46.21;99755.31;3144092;28;20071;-60
2022/09/21 05:08:13;;;;;;;8.00;1.40;;;;;;;14.94;46.33;99752.81;3146036;28;20079;-60
2022/09/21 05:10:02;;;;;;;4.70;1.48;;;;;;;14.93;46.12;99751.09;3143427;28;20055;-60
2022/09/21 05:11:34;;;;;;;4.55;1.33;;;;;;;14.94;46.03;99751.03;3145441;28;20524;-59
2022/09/21 05:13:06;;;;;;;46.03;25.88;;;;;;;14.95;46.01;99752.69;3136921;28;20132;-63
2022/09/21 05:14:38;;;;;;;9.70;4.55;;;;;;;14.95;46.41;99757.94;3144917;28;20122;-61
2022/09/21 05:16:10;;;;;;;6.55;3.10;;;;;;;15.00;46.22;99760.28;3145473;28;20067;-61
2022/09/21 05:17:42;;;;;;;15.88;8.10;;;;;;;15.01;46.02;99751.47;3145853;28;20473;-60
2022/09/21 05:19:14;;;;;;;3.58;1.83;;;;;;;15.05;46.09;99752.94;3145903;28;20048;-60
2022/09/21 05:20:46;;;;;;;5.50;1.88;;;;;;;15.08;45.92;99749.28;3145746;28;20048;-60
2022/09/21 05:22:18;;;;;;;7.90;1.48;;;;;;;15.10;46.16;99745.63;3146030;28;20057;-60
2022/09/21 05:23:51;;;;;;;12.50;2.42;;;;;;;15.12;46.32;99749.00;3146469;28;20106;-62
2022/09/21 05:25:23;;;;;;;8.00;1.45;;;;;;;15.12;46.00;99749.00;3146360;28;20052;-62
2022/09/21 05:26:55;;;;;;;2.95;1.30;;;;;;;15.16;46.10;99755.72;3145887;28;20071;-60
2022/09/21 05:28:27;;;;;;;8.65;1.77;;;;;;;15.16;45.92;99753.09;3145979;28;20052;-61
2022/09/21 05:29:59;;;;;;;7.80;1.73;;;;;;;15.17;46.25;99752.16;3146234;28;20040;-62
2022/09/21 05:31:42;;;;;;;7.78;3.05;;;;;;;15.19;46.27;99749.44;3146061;28;20426;-62
2022/09/21 05:33:20;;;;;;;114.63;64.88;;;;;;;15.23;46.02;99761.41;3146215;28;20052;-63
2022/09/21 05:35:02;;;;;;;56.45;31.58;;;;;;;15.26;46.10;99758.56;3145716;28;20052;-71
2022/09/21 05:36:45;;;;;;;7.55;3.13;;;;;;;15.31;46.08;99758.28;3146398;28;20127;-64
2022/09/21 05:38:19;;;;;;;2.43;1.40;;;;;;;15.31;45.87;99758.28;3144817;28;20070;-60
2022/09/21 05:39:53;;;;;;;3.67;1.40;;;;;;;15.35;45.74;99749.25;3143289;28;20493;-60
2022/09/21 05:41:25;;;;;;;7.00;2.20;;;;;;;15.39;45.85;99745.50;3140008;28;20430;-62
2022/09/21 05:42:57;;;;;;;6.33;1.80;;;;;;;15.40;45.77;99747.19;3146091;28;20174;-60
2022/09/21 05:44:30;;;;;;;5.40;1.48;;;;;;;15.37;45.88;99747.38;3146028;28;20052;-61
2022/09/21 05:46:05;;;;;;;5.70;1.40;;;;;;;15.39;46.02;99748.97;3145481;28;20105;-61
2022/09/21 05:47:40;;;;;;;4.55;1.65;;;;;;;15.44;45.81;99753.94;3145948;28;20063;-61
2022/09/21 05:49:19;;;;;;;7.00;1.75;;;;;;;15.48;45.66;99752.78;3145594;28;20082;-62
2022/09/21 05:50:59;;;;;;;4.78;1.52;;;;;;;15.48;45.58;99752.78;3140584;28;20060;-60
2022/09/21 05:52:39;;;;;;;6.55;1.55;;;;;;;15.51;45.55;99755.19;3140160;28;20049;-60
2022/09/21 05:54:21;;;;;;;9.60;1.90;;;;;;;15.53;45.43;99766.44;3145651;28;20139;-60
2022/09/21 05:55:57;;;;;;;2.20;1.40;;;;;;;15.52;45.68;99750.78;3144419;28;20563;-60
2022/09/21 05:57:41;;;;;;;5.40;1.15;;;;;;;15.56;45.74;99762.75;3145539;28;20514;-61
2022/09/21 05:59:39;;;;;;;5.93;1.13;;;;;;;15.50;45.55;99758.78;3145552;28;20052;-61
2022/09/21 06:01:34;;;;;;;4.03;1.10;;;;;;;15.45;45.76;99760.84;3144752;28;20066;-60
2022/09/21 06:03:27;;;;;;;3.13;1.08;;;;;;;15.44;45.71;99764.44;3143059;28;20486;-61
2022/09/21 06:05:01;;;;;;;4.75;1.42;;;;;;;15.42;45.98;99761.06;3144274;28;20072;-60
2022/09/21 06:06:33;;;;;;;4.50;1.13;;;;;;;15.42;45.67;99768.94;3139558;28;20052;-59
2022/09/21 06:08:05;;;;;;;4.78;1.52;;;;;;;15.39;45.79;99771.75;3145294;28;20066;-59
2022/09/21 06:09:37;;;;;;;7.65;1.33;;;;;;;15.38;46.22;99770.03;3145821;28;20524;-59
2022/09/21 06:11:10;;;;;;;2.63;1.10;;;;;;;15.40;46.18;99763.75;3142695;28;20091;-61
2022/09/21 06:12:43;;;;;;;4.50;1.10;;;;;;;15.42;45.93;99775.00;3144985;28;20048;-60
2022/09/21 06:14:14;;;;;;;3.00;1.17;;;;;;;15.46;46.01;99763.34;3145441;28;20048;-60
2022/09/21 06:15:47;;;;;;;6.63;1.40;;;;;;;15.48;46.40;99764.09;3145647;28;20397;-61
2022/09/21 06:17:19;;;;;;;2.10;0.95;;;;;;;15.55;46.09;99767.16;3144854;28;20521;-60
2022/09/21 06:18:50;;;;;;;8.38;1.10;;;;;;;15.62;46.19;99767.63;3140795;28;20441;-60
2022/09/21 06:20:23;;;;;;;3.08;1.30;;;;;;;15.68;45.78;99773.31;3144287;28;20106;-60
2022/09/21 06:21:55;;;;;;;6.93;1.42;;;;;;;15.75;45.99;99767.66;3145363;28;20044;-60
2022/09/21 06:23:27;;;;;;;2.85;1.17;;;;;;;15.79;45.78;99774.38;3142562;28;20070;-60
2022/09/21 06:24:59;;;;;;;7.90;1.20;;;;;;;15.87;45.62;99774.72;3144909;28;20060;-61
2022/09/21 06:26:32;;;;;;;5.35;1.13;;;;;;;15.88;45.47;99769.38;3144853;28;20598;-60
2022/09/21 06:28:05;;;;;;;1.40;0.90;;;;;;;15.84;45.33;99778.38;3144947;28;20057;-60
2022/09/21 06:29:37;;;;;;;4.53;1.05;;;;;;;15.89;45.62;99778.06;3145054;28;20119;-61
2022/09/21 06:31:09;;;;;;;5.43;1.35;;;;;;;15.91;45.60;99774.41;3141241;28;20378;-61
2022/09/21 06:32:40;;;;;;;5.78;1.83;;;;;;;15.96;45.43;99771.44;3145073;28;20052;-61
2022/09/21 06:34:12;;;;;;;3.17;1.00;;;;;;;16.04;45.19;99763.06;3145285;28;20060;-61
2022/09/21 06:35:44;;;;;;;1.85;1.25;;;;;;;16.03;45.47;99761.38;3138406;28;20403;-60
2022/09/21 06:37:16;;;;;;;5.88;1.02;;;;;;;16.07;45.10;99768.09;3145224;28;20048;-60
2022/09/21 06:38:48;;;;;;;5.10;1.58;;;;;;;16.12;45.06;99761.59;3145120;28;20055;-61
2022/09/21 06:40:20;;;;;;;14.07;7.40;;;;;;;16.18;44.94;99769.97;3144773;28;20052;-61
2022/09/21 06:41:53;;;;;;;10.43;5.78;;;;;;;16.19;44.80;99767.25;3145151;28;20052;-61
2022/09/21 06:43:25;;;;;;;41.60;21.90;;;;;;;16.25;44.66;99773.88;3145280;28;20052;-60
2022/09/21 06:44:57;;;;;;;6.20;1.90;;;;;;;16.31;44.79;99766.41;3143155;28;20044;-60
2022/09/21 06:46:29;;;;;;;8.88;1.88;;;;;;;16.38;44.58;99765.03;3144778;28;20052;-60
2022/09/21 06:48:01;;;;;;;2.25;1.30;;;;;;;16.41;44.47;99777.09;3139022;28;20067;-60
2022/09/21 06:49:33;;;;;;;6.88;1.48;;;;;;;16.42;44.56;99777.97;3145089;28;20053;-59
2022/09/21 06:51:06;;;;;;;4.15;0.90;;;;;;;16.33;44.19;99769.78;3144785;28;20762;-59
2022/09/21 06:52:39;;;;;;;7.60;1.00;;;;;;;16.36;44.33;99777.44;3143100;28;20135;-58
2022/09/21 06:54:11;;;;;;;1.75;0.70;;;;;;;16.37;43.96;99780.91;3139421;28;20130;-59
2022/09/21 06:55:43;;;;;;;7.50;1.40;;;;;;;16.34;44.24;99781.13;3144989;28;20189;-59
2022/09/21 06:57:16;;;;;;;3.53;1.30;;;;;;;16.35;44.28;99783.63;3144608;28;20135;-58
2022/09/21 06:58:48;;;;;;;4.22;1.45;;;;;;;16.41;43.94;99782.38;3143916;28;20115;-58
2022/09/21 07:00:20;;;;;;;1.83;0.95;;;;;;;16.42;44.04;99783.22;3144444;28;20049;-59
2022/09/21 07:01:54;;;;;;;2.85;1.35;;;;;;;16.38;43.85;99783.41;3144298;28;20045;-59
2022/09/21 07:03:26;;;;;;;4.50;0.95;;;;;;;16.35;44.01;99790.69;3144270;28;20486;-58
2022/09/21 07:04:58;;;;;;;4.80;1.50;;;;;;;16.35;44.16;99785.44;3143510;28;20052;-58
2022/09/21 07:06:30;;;;;;;1.90;1.27;;;;;;;16.45;44.14;99781.22;3143745;28;20493;-59
2022/09/21 07:08:02;;;;;;;2.50;1.50;;;;;;;16.59;43.91;99778.47;3143397;28;20060;-59
2022/09/21 07:09:34;;;;;;;4.45;1.65;;;;;;;16.69;43.46;99783.09;3143449;28;20044;-58
2022/09/21 07:11:06;;;;;;;2.85;0.80;;;;;;;16.80;43.40;99784.03;3143413;28;20157;-58
2022/09/21 07:12:40;;;;;;;9.80;1.40;;;;;;;16.88;43.08;99791.34;3143476;28;20114;-58
2022/09/21 07:14:12;;;;;;;3.13;1.08;;;;;;;16.94;42.85;99790.91;3141646;28;20052;-58
2022/09/21 07:15:44;;;;;;;1.85;0.93;;;;;;;16.91;42.48;99785.88;3143348;28;20461;-58
2022/09/21 07:17:16;;;;;;;1.92;1.08;;;;;;;16.90;42.50;99773.69;3143695;28;20462;-59
2022/09/21 07:18:48;;;;;;;6.20;1.73;;;;;;;17.03;42.22;99784.16;3142881;28;20055;-58
2022/09/21 07:20:20;;;;;;;2.83;0.80;;;;;;;17.11;41.90;99780.97;3143712;28;20527;-58
2022/09/21 07:21:53;;;;;;;4.75;0.80;;;;;;;17.22;41.96;99792.41;3143424;28;20067;-58
2022/09/21 07:23:25;;;;;;;3.08;1.40;;;;;;;17.23;41.68;99785.34;3143476;28;20057;-58
2022/09/21 07:24:57;;;;;;;2.55;1.02;;;;;;;17.29;41.69;99772.56;3142630;28;20098;-60